createdAt,value
2018-10-09T00:00:07.800Z,0
2018-10-09T00:01:07.925Z,0
2018-10-09T00:02:08.523Z,0
2018-10-09T00:03:08.031Z,0
2018-10-09T00:04:07.761Z,0
2018-10-09T00:05:07.502Z,0
2018-10-09T00:06:07.748Z,0
2018-10-09T00:07:08.853Z,0
2018-10-09T00:08:07.723Z,0
2018-10-09T00:09:07.747Z,0
2018-10-09T00:10:07.705Z,0
2018-10-09T00:11:07.697Z,0
2018-10-09T00:12:08.185Z,0
2018-10-09T00:13:07.424Z,0
2018-10-09T00:14:07.912Z,0
2018-10-09T00:15:07.657Z,0
2018-10-09T00:16:07.905Z,0
2018-10-09T00:17:07.385Z,0
2018-10-09T00:18:07.617Z,0
2018-10-09T00:19:07.607Z,0
2018-10-09T00:20:07.609Z,0
2018-10-09T00:21:07.346Z,0
2018-10-09T00:22:07.596Z,0
2018-10-09T00:23:07.833Z,0
2018-10-09T00:24:07.312Z,0
2018-10-09T00:25:07.655Z,0
2018-10-09T00:26:08.138Z,0
2018-10-09T00:27:07.534Z,0
2018-10-09T00:28:07.525Z,0
2018-10-09T00:29:07.770Z,0
2018-10-09T00:30:07.506Z,0
2018-10-09T00:31:07.748Z,0
2018-10-09T00:32:07.743Z,0
2018-10-09T00:33:06.998Z,0
2018-10-09T00:34:07.715Z,0
2018-10-09T00:35:07.203Z,0
2018-10-09T00:36:07.445Z,0
2018-10-09T00:37:07.686Z,0
2018-10-09T00:38:07.683Z,0
2018-10-09T00:39:07.420Z,0
2018-10-09T00:40:07.159Z,0
2018-10-09T00:41:07.389Z,0
2018-10-09T00:42:07.642Z,0
2018-10-09T00:43:07.623Z,0
2018-10-09T00:44:07.364Z,0
2018-10-09T00:45:07.610Z,0
2018-10-09T00:46:07.343Z,0
2018-10-09T00:47:07.647Z,0
2018-10-09T00:48:07.572Z,0
2018-10-09T00:49:07.563Z,0
2018-10-09T00:50:07.556Z,0
2018-10-09T00:51:07.290Z,0
2018-10-09T00:52:07.290Z,0
2018-10-09T00:53:07.271Z,0
2018-10-09T00:54:07.005Z,0
2018-10-09T00:55:06.744Z,0
2018-10-09T00:56:06.986Z,0
2018-10-09T00:57:06.724Z,0
2018-10-09T00:58:06.967Z,0
2018-10-09T00:59:06.956Z,0
2018-10-09T01:00:07.198Z,0
2018-10-09T01:01:07.442Z,0
2018-10-09T01:02:07.441Z,0
2018-10-09T01:03:06.917Z,0
2018-10-09T01:04:07.158Z,0
2018-10-09T01:05:07.402Z,0
2018-10-09T01:06:07.139Z,0
2018-10-09T01:07:07.403Z,0
2018-10-09T01:08:06.669Z,0
2018-10-09T01:09:07.272Z,0
2018-10-09T01:10:06.847Z,0
2018-10-09T01:11:06.830Z,0
2018-10-09T01:12:07.076Z,0
2018-10-09T01:13:06.550Z,0
2018-10-09T01:14:06.808Z,0
2018-10-09T01:15:07.043Z,0
2018-10-09T01:16:06.790Z,0
2018-10-09T01:17:07.291Z,0
2018-10-09T01:18:07.013Z,0
2018-10-09T01:19:07.010Z,0
2018-10-09T01:20:06.735Z,0
2018-10-09T01:21:06.989Z,0
2018-10-09T01:22:06.971Z,0
2018-10-09T01:23:07.217Z,0
2018-10-09T01:24:06.952Z,0
2018-10-09T01:25:07.204Z,0
2018-10-09T01:26:06.932Z,0
2018-10-09T01:27:06.667Z,0
2018-10-09T01:28:06.402Z,0
2018-10-09T01:29:06.909Z,0
2018-10-09T01:30:07.150Z,0
2018-10-09T01:31:07.132Z,0
2018-10-09T01:32:07.134Z,0
2018-10-09T01:33:06.860Z,0
2018-10-09T01:34:07.111Z,0
2018-10-09T01:35:07.095Z,0
2018-10-09T01:36:06.826Z,0
2018-10-09T01:37:07.066Z,0
2018-10-09T01:38:06.812Z,0
2018-10-09T01:39:06.808Z,0
2018-10-09T01:40:06.790Z,0
2018-10-09T01:41:06.774Z,0
2018-10-09T01:42:06.768Z,0
2018-10-09T01:43:06.778Z,0
2018-10-09T01:44:06.749Z,0
2018-10-09T01:45:06.736Z,0
2018-10-09T01:46:06.745Z,0
2018-10-09T01:47:06.467Z,0
2018-10-09T01:48:06.721Z,0
2018-10-09T01:49:06.705Z,0
2018-10-09T01:50:06.694Z,0
2018-10-09T01:51:06.422Z,0
2018-10-09T01:52:06.409Z,0
2018-10-09T01:53:06.916Z,0
2018-10-09T01:54:06.902Z,0
2018-10-09T01:55:06.378Z,0
2018-10-09T01:56:06.627Z,0
2018-10-09T01:57:06.616Z,0
2018-10-09T01:58:06.606Z,0
2018-10-09T01:59:06.589Z,0
2018-10-09T02:00:06.584Z,0
2018-10-09T02:01:06.578Z,0
2018-10-09T02:02:06.560Z,0
2018-10-09T02:03:06.604Z,0
2018-10-09T02:04:06.542Z,0
2018-10-09T02:05:06.536Z,0
2018-10-09T02:06:06.264Z,0
2018-10-09T02:07:06.765Z,0
2018-10-09T02:08:06.753Z,0
2018-10-09T02:09:06.488Z,0
2018-10-09T02:10:06.542Z,0
2018-10-09T02:11:06.208Z,0
2018-10-09T02:12:06.457Z,0
2018-10-09T02:13:06.200Z,0
2018-10-09T02:14:06.432Z,0
2018-10-09T02:15:05.917Z,0
2018-10-09T02:16:06.412Z,0
2018-10-09T02:17:06.408Z,0
2018-10-09T02:18:06.392Z,0
2018-10-09T02:19:06.382Z,0
2018-10-09T02:20:06.127Z,0
2018-10-09T02:21:06.377Z,0
2018-10-09T02:22:06.360Z,0
2018-10-09T02:23:06.627Z,0
2018-10-09T02:24:06.582Z,0
2018-10-09T02:25:06.322Z,0
2018-10-09T02:26:06.304Z,0
2018-10-09T02:27:06.048Z,0
2018-10-09T02:28:06.292Z,0
2018-10-09T02:29:06.287Z,0
2018-10-09T02:30:06.272Z,0
2018-10-09T02:31:06.257Z,0
2018-10-09T02:32:05.992Z,0
2018-10-09T02:33:06.248Z,0
2018-10-09T02:34:06.224Z,0
2018-10-09T02:35:05.968Z,0
2018-10-09T02:36:06.204Z,0
2018-10-09T02:37:05.946Z,0
2018-10-09T02:38:06.181Z,0
2018-10-09T02:39:06.176Z,0
2018-10-09T02:40:06.424Z,0
2018-10-09T02:41:06.153Z,0
2018-10-09T02:42:05.881Z,0
2018-10-09T02:43:06.207Z,0
2018-10-09T02:44:06.124Z,0
2018-10-09T02:45:06.126Z,0
2018-10-09T02:46:06.104Z,0
2018-10-09T02:47:06.351Z,0
2018-10-09T02:48:06.104Z,0
2018-10-09T02:49:06.066Z,0
2018-10-09T02:50:06.061Z,0
2018-10-09T02:51:06.303Z,0
2018-10-09T02:52:06.036Z,0
2018-10-09T02:53:06.281Z,0
2018-10-09T02:54:06.014Z,0
2018-10-09T02:55:06.002Z,0
2018-10-09T02:56:05.991Z,0
2018-10-09T02:57:06.241Z,0
2018-10-09T02:58:05.716Z,0
2018-10-09T02:59:06.219Z,0
2018-10-09T03:00:06.204Z,0
2018-10-09T03:01:05.937Z,0
2018-10-09T03:02:05.671Z,0
2018-10-09T03:03:05.661Z,0
2018-10-09T03:04:06.172Z,0
2018-10-09T03:05:06.151Z,0
2018-10-09T03:06:06.181Z,0
2018-10-09T03:07:05.617Z,0
2018-10-09T03:08:05.610Z,0
2018-10-09T03:09:05.857Z,0
2018-10-09T03:10:05.850Z,0
2018-10-09T03:11:05.580Z,0
2018-10-09T03:12:05.822Z,0
2018-10-09T03:13:05.811Z,0
2018-10-09T03:14:05.553Z,0
2018-10-09T03:15:05.787Z,0
2018-10-09T03:16:05.775Z,0
2018-10-09T03:17:05.778Z,0
2018-10-09T03:18:05.761Z,0
2018-10-09T03:19:05.737Z,0
2018-10-09T03:20:05.735Z,0
2018-10-09T03:21:05.723Z,0
2018-10-09T03:22:05.714Z,0
2018-10-09T03:23:05.483Z,0
2018-10-09T03:24:05.696Z,0
2018-10-09T03:25:05.700Z,0
2018-10-09T03:26:05.921Z,0
2018-10-09T03:27:05.925Z,0
2018-10-09T03:28:05.653Z,0
2018-10-09T03:29:05.643Z,0
2018-10-09T03:30:05.369Z,0
2018-10-09T03:31:05.635Z,0
2018-10-09T03:32:05.860Z,0
2018-10-09T03:33:05.847Z,0
2018-10-09T03:34:05.840Z,0
2018-10-09T03:35:05.823Z,0
2018-10-09T03:36:05.302Z,0
2018-10-09T03:37:05.548Z,0
2018-10-09T03:38:05.552Z,0
2018-10-09T03:39:05.536Z,0
2018-10-09T03:40:05.258Z,0
2018-10-09T03:41:05.501Z,0
2018-10-09T03:42:05.504Z,0
2018-10-09T03:43:05.482Z,0
2018-10-09T03:44:05.724Z,0
2018-10-09T03:45:05.729Z,0
2018-10-09T03:46:05.199Z,0
2018-10-09T03:47:05.442Z,0
2018-10-09T03:48:05.677Z,0
2018-10-09T03:49:05.167Z,0
2018-10-09T03:50:05.661Z,0
2018-10-09T03:51:05.652Z,0
2018-10-09T03:52:05.642Z,0
2018-10-09T03:53:05.627Z,0
2018-10-09T03:54:05.361Z,0
2018-10-09T03:55:05.108Z,0
2018-10-09T03:56:05.089Z,0
2018-10-09T03:57:05.594Z,0
2018-10-09T03:58:05.066Z,0
2018-10-09T03:59:05.306Z,0
2018-10-09T04:00:05.041Z,0
2018-10-09T04:01:05.537Z,0
2018-10-09T04:02:05.065Z,0
2018-10-09T04:03:05.524Z,0
2018-10-09T04:04:05.519Z,0
2018-10-09T04:05:04.993Z,0
2018-10-09T04:06:04.722Z,0
2018-10-09T04:07:05.225Z,0
2018-10-09T04:08:05.465Z,0
2018-10-09T04:09:05.824Z,0
2018-10-09T04:10:05.195Z,0
2018-10-09T04:11:04.928Z,0
2018-10-09T04:12:05.423Z,0
2018-10-09T04:13:04.650Z,0
2018-10-09T04:14:05.407Z,0
2018-10-09T04:15:05.137Z,0
2018-10-09T04:16:05.382Z,0
2018-10-09T04:17:05.119Z,0
2018-10-09T04:18:05.112Z,0
2018-10-09T04:19:05.097Z,0
2018-10-09T04:20:05.089Z,0
2018-10-09T04:21:05.072Z,0
2018-10-09T04:22:05.319Z,0
2018-10-09T04:23:04.803Z,0
2018-10-09T04:24:05.305Z,0
2018-10-09T04:25:04.520Z,0
2018-10-09T04:26:05.278Z,0
2018-10-09T04:27:05.027Z,0
2018-10-09T04:28:04.742Z,0
2018-10-09T04:29:05.245Z,0
2018-10-09T04:30:04.979Z,0
2018-10-09T04:31:05.219Z,0
2018-10-09T04:32:04.703Z,0
2018-10-09T04:33:05.198Z,0
2018-10-09T04:34:05.206Z,0
2018-10-09T04:35:04.667Z,0
2018-10-09T04:36:04.654Z,0
2018-10-09T04:37:04.896Z,0
2018-10-09T04:38:04.886Z,0
2018-10-09T04:39:04.621Z,0
2018-10-09T04:40:04.863Z,0
2018-10-09T04:41:04.849Z,0
2018-10-09T04:42:04.844Z,0
2018-10-09T04:43:04.831Z,0
2018-10-09T04:44:04.820Z,0
2018-10-09T04:45:05.062Z,0
2018-10-09T04:46:04.544Z,0
2018-10-09T04:47:05.044Z,0
2018-10-09T04:48:04.777Z,0
2018-10-09T04:49:04.765Z,0
2018-10-09T04:50:04.504Z,0
2018-10-09T04:51:04.741Z,0
2018-10-09T04:52:04.475Z,0
2018-10-09T04:53:05.362Z,0
2018-10-09T04:54:04.966Z,0
2018-10-09T04:55:04.441Z,0
2018-10-09T04:56:04.431Z,0
2018-10-09T04:57:04.934Z,0
2018-10-09T04:58:04.664Z,0
2018-10-09T04:59:04.403Z,0
2018-10-09T05:00:04.137Z,0
2018-10-09T05:01:04.628Z,0
2018-10-09T05:02:04.621Z,0
2018-10-09T05:03:04.353Z,0
2018-10-09T05:04:04.613Z,0
2018-10-09T05:05:04.584Z,0
2018-10-09T05:06:04.834Z,0
2018-10-09T05:07:04.833Z,0
2018-10-09T05:08:04.818Z,0
2018-10-09T05:09:04.540Z,0
2018-10-09T05:10:04.535Z,0
2018-10-09T05:11:04.520Z,0
2018-10-09T05:12:04.257Z,0
2018-10-09T05:13:04.514Z,0
2018-10-09T05:14:04.483Z,0
2018-10-09T05:15:03.966Z,0
2018-10-09T05:16:04.477Z,0
2018-10-09T05:17:04.454Z,0
2018-10-09T05:18:04.861Z,0
2018-10-09T05:19:04.180Z,0
2018-10-09T05:20:04.163Z,0
2018-10-09T05:21:04.661Z,5
2018-10-09T05:22:07.106Z,5
2018-10-09T05:23:04.442Z,5
2018-10-09T05:24:04.125Z,5
2018-10-09T05:25:04.627Z,5
2018-10-09T05:26:03.855Z,5
2018-10-09T05:27:04.093Z,5
2018-10-09T05:28:04.092Z,5
2018-10-09T05:29:04.323Z,10
2018-10-09T05:30:04.053Z,10
2018-10-09T05:31:04.481Z,10
2018-10-09T05:32:03.783Z,10
2018-10-09T05:33:04.274Z,10
2018-10-09T05:34:04.535Z,15
2018-10-09T05:35:04.254Z,15
2018-10-09T05:36:04.503Z,15
2018-10-09T05:37:04.230Z,15
2018-10-09T05:38:03.967Z,20
2018-10-09T05:39:03.955Z,20
2018-10-09T05:40:04.475Z,20
2018-10-09T05:41:03.937Z,20
2018-10-09T05:42:04.431Z,20
2018-10-09T05:43:04.163Z,25
2018-10-09T05:44:03.945Z,25
2018-10-09T05:45:04.189Z,25
2018-10-09T05:46:04.390Z,25
2018-10-09T05:47:03.610Z,30
2018-10-09T05:48:04.119Z,30
2018-10-09T05:49:04.348Z,30
2018-10-09T05:50:03.859Z,30
2018-10-09T05:51:04.073Z,35
2018-10-09T05:52:04.326Z,35
2018-10-09T05:53:04.053Z,35
2018-10-09T05:54:03.787Z,40
2018-10-09T05:55:04.286Z,40
2018-10-09T05:56:03.514Z,40
2018-10-09T05:57:04.262Z,45
2018-10-09T05:58:04.216Z,45
2018-10-09T05:59:03.991Z,50
2018-10-09T06:00:04.250Z,50
2018-10-09T06:01:03.961Z,50
2018-10-09T06:02:03.957Z,55
2018-10-09T06:03:04.204Z,55
2018-10-09T06:04:03.930Z,60
2018-10-09T06:05:04.183Z,60
2018-10-09T06:06:04.900Z,60
2018-10-09T06:07:03.900Z,60
2018-10-09T06:08:03.902Z,65
2018-10-09T06:09:03.371Z,65
2018-10-09T06:10:03.620Z,65
2018-10-09T06:11:04.111Z,70
2018-10-09T06:12:03.858Z,70
2018-10-09T06:13:03.835Z,70
2018-10-09T06:14:03.825Z,70
2018-10-09T06:15:03.557Z,70
2018-10-09T06:16:04.581Z,75
2018-10-09T06:17:03.801Z,75
2018-10-09T06:18:04.038Z,75
2018-10-09T06:19:04.025Z,75
2018-10-09T06:20:04.013Z,80
2018-10-09T06:21:04.004Z,80
2018-10-09T06:22:03.839Z,80
2018-10-09T06:23:03.469Z,80
2018-10-09T06:24:03.464Z,85
2018-10-09T06:25:03.705Z,85
2018-10-09T06:26:03.950Z,90
2018-10-09T06:27:03.687Z,90
2018-10-09T06:28:04.002Z,90
2018-10-09T06:29:03.913Z,95
2018-10-09T06:30:03.393Z,95
2018-10-09T06:31:03.385Z,95
2018-10-09T06:32:03.375Z,95
2018-10-09T06:33:03.629Z,95
2018-10-09T06:34:03.950Z,95
2018-10-09T06:35:03.597Z,95
2018-10-09T06:36:03.593Z,100
2018-10-09T06:37:03.866Z,100
2018-10-09T06:38:32.889Z,100
2018-10-09T06:39:03.580Z,100
2018-10-09T06:40:03.807Z,100
2018-10-09T06:41:03.803Z,105
2018-10-09T06:42:03.793Z,105
2018-10-09T06:43:03.707Z,105
2018-10-09T06:44:03.527Z,105
2018-10-09T06:45:03.500Z,105
2018-10-09T06:46:03.486Z,105
2018-10-09T06:47:03.472Z,105
2018-10-09T06:48:03.478Z,110
2018-10-09T06:49:03.454Z,110
2018-10-09T06:50:03.705Z,110
2018-10-09T06:51:03.438Z,110
2018-10-09T06:52:02.921Z,110
2018-10-09T06:53:03.164Z,110
2018-10-09T06:54:05.196Z,115
2018-10-09T06:55:03.774Z,115
2018-10-09T06:56:03.389Z,115
2018-10-09T06:57:03.388Z,115
2018-10-09T06:58:03.363Z,120
2018-10-09T06:59:03.619Z,125
2018-10-09T07:00:02.903Z,125
2018-10-09T07:01:03.603Z,125
2018-10-09T07:02:03.342Z,125
2018-10-09T07:03:03.594Z,125
2018-10-09T07:04:03.581Z,130
2018-10-09T07:05:03.567Z,130
2018-10-09T07:06:03.554Z,130
2018-10-09T07:07:03.549Z,130
2018-10-09T07:08:03.552Z,130
2018-10-09T07:09:03.271Z,130
2018-10-09T07:10:03.263Z,130
2018-10-09T07:11:03.758Z,130
2018-10-09T07:12:03.502Z,135
2018-10-09T07:13:03.007Z,135
2018-10-09T07:14:03.233Z,140
2018-10-09T07:15:03.480Z,140
2018-10-09T07:16:03.208Z,145
2018-10-09T07:17:03.547Z,150
2018-10-09T07:18:03.453Z,150
2018-10-09T07:19:03.444Z,155
2018-10-09T07:20:03.440Z,155
2018-10-09T07:21:02.913Z,160
2018-10-09T07:22:03.405Z,165
2018-10-09T07:23:03.410Z,170
2018-10-09T07:24:03.409Z,175
2018-10-09T07:25:03.393Z,175
2018-10-09T07:26:03.123Z,180
2018-10-09T07:27:03.119Z,185
2018-10-09T07:28:03.859Z,185
2018-10-09T07:29:03.357Z,190
2018-10-09T07:30:03.089Z,190
2018-10-09T07:31:02.573Z,195
2018-10-09T07:32:02.565Z,195
2018-10-09T07:33:03.067Z,200
2018-10-09T07:34:03.059Z,195
2018-10-09T07:35:03.315Z,200
2018-10-09T07:36:03.051Z,200
2018-10-09T07:37:02.782Z,200
2018-10-09T07:38:03.308Z,195
2018-10-09T07:39:03.280Z,195
2018-10-09T07:40:03.267Z,190
2018-10-09T07:41:03.261Z,185
2018-10-09T07:42:03.003Z,180
2018-10-09T07:43:03.001Z,175
2018-10-09T07:44:03.833Z,165
2018-10-09T07:45:03.254Z,160
2018-10-09T07:46:02.713Z,150
2018-10-09T07:47:03.026Z,150
2018-10-09T07:48:02.956Z,145
2018-10-09T07:49:03.207Z,140
2018-10-09T07:50:02.953Z,135
2018-10-09T07:51:02.944Z,135
2018-10-09T07:52:02.680Z,135
2018-10-09T07:53:03.502Z,130
2018-10-09T07:54:02.661Z,125
2018-10-09T07:55:02.908Z,125
2018-10-09T07:56:02.905Z,125
2018-10-09T07:57:03.157Z,120
2018-10-09T07:58:03.142Z,125
2018-10-09T07:59:03.150Z,130
2018-10-09T08:00:03.131Z,135
2018-10-09T08:01:02.610Z,140
2018-10-09T08:02:02.875Z,140
2018-10-09T08:03:02.597Z,145
2018-10-09T08:04:02.599Z,145
2018-10-09T08:05:02.853Z,150
2018-10-09T08:06:02.843Z,150
2018-10-09T08:07:03.101Z,150
2018-10-09T08:08:02.835Z,150
2018-10-09T08:09:03.074Z,155
2018-10-09T08:10:02.811Z,155
2018-10-09T08:11:03.548Z,160
2018-10-09T08:12:02.541Z,160
2018-10-09T08:13:02.794Z,165
2018-10-09T08:14:02.530Z,165
2018-10-09T08:15:03.049Z,170
2018-10-09T08:16:03.037Z,180
2018-10-09T08:17:03.019Z,185
2018-10-09T08:18:03.027Z,190
2018-10-09T08:19:03.014Z,195
2018-10-09T08:20:02.753Z,195
2018-10-09T08:21:02.490Z,195
2018-10-09T08:22:02.734Z,200
2018-10-09T08:23:03.248Z,200
2018-10-09T08:24:02.983Z,205
2018-10-09T08:25:02.724Z,210
2018-10-09T08:26:02.967Z,210
2018-10-09T08:27:02.964Z,210
2018-10-09T08:28:03.427Z,215
2018-10-09T08:29:02.445Z,215
2018-10-09T08:30:02.692Z,215
2018-10-09T08:31:02.933Z,220
2018-10-09T08:32:02.677Z,220
2018-10-09T08:33:02.417Z,220
2018-10-09T08:34:02.404Z,220
2018-10-09T08:35:02.912Z,215
2018-10-09T08:36:02.396Z,220
2018-10-09T08:37:02.934Z,220
2018-10-09T08:38:02.133Z,220
2018-10-09T08:39:02.636Z,215
2018-10-09T08:40:02.659Z,215
2018-10-09T08:41:02.881Z,215
2018-10-09T08:42:02.623Z,210
2018-10-09T08:43:02.659Z,210
2018-10-09T08:44:02.613Z,210
2018-10-09T08:45:02.603Z,215
2018-10-09T08:46:02.601Z,215
2018-10-09T08:47:02.848Z,215
2018-10-09T08:48:02.594Z,215
2018-10-09T08:49:02.846Z,215
2018-10-09T08:50:02.871Z,215
2018-10-09T08:51:02.579Z,215
2018-10-09T08:52:02.879Z,215
2018-10-09T08:53:02.832Z,215
2018-10-09T08:54:02.557Z,220
2018-10-09T08:55:02.562Z,220
2018-10-09T08:56:02.297Z,225
2018-10-09T08:57:02.548Z,225
2018-10-09T08:58:02.290Z,230
2018-10-09T08:59:02.412Z,230
2018-10-09T09:00:02.812Z,230
2018-10-09T09:01:02.807Z,235
2018-10-09T09:02:02.317Z,235
2018-10-09T09:03:02.776Z,235
2018-10-09T09:04:02.776Z,240
2018-10-09T09:05:02.254Z,240
2018-10-09T09:06:02.772Z,245
2018-10-09T09:07:02.509Z,245
2018-10-09T09:08:02.757Z,245
2018-10-09T09:09:02.497Z,245
2018-10-09T09:10:02.760Z,245
2018-10-09T09:11:02.489Z,245
2018-10-09T09:12:02.740Z,245
2018-10-09T09:13:02.744Z,245
2018-10-09T09:14:03.063Z,245
2018-10-09T09:15:02.725Z,250
2018-10-09T09:16:02.722Z,250
2018-10-09T09:17:02.462Z,250
2018-10-09T09:18:02.463Z,255
2018-10-09T09:19:02.458Z,255
2018-10-09T09:20:02.453Z,260
2018-10-09T09:21:02.856Z,265
2018-10-09T09:22:02.447Z,270
2018-10-09T09:23:02.697Z,275
2018-10-09T09:24:02.693Z,275
2018-10-09T09:25:02.435Z,280
2018-10-09T09:26:02.795Z,285
2018-10-09T09:27:02.867Z,285
2018-10-09T09:28:02.842Z,290
2018-10-09T09:29:02.432Z,295
2018-10-09T09:30:02.161Z,295
2018-10-09T09:31:02.467Z,300
2018-10-09T09:32:02.414Z,305
2018-10-09T09:33:02.516Z,305
2018-10-09T09:34:02.700Z,310
2018-10-09T09:35:02.656Z,310
2018-10-09T09:36:02.139Z,310
2018-10-09T09:37:02.136Z,310
2018-10-09T09:38:02.657Z,315
2018-10-09T09:39:02.867Z,315
2018-10-09T09:40:02.389Z,315
2018-10-09T09:41:02.128Z,320
2018-10-09T09:42:02.382Z,320
2018-10-09T09:43:02.385Z,320
2018-10-09T09:44:02.384Z,320
2018-10-09T09:45:02.639Z,325
2018-10-09T09:46:03.425Z,325
2018-10-09T09:47:02.379Z,325
2018-10-09T09:48:02.377Z,330
2018-10-09T09:49:02.361Z,330
2018-10-09T09:50:02.616Z,330
2018-10-09T09:51:02.366Z,330
2018-10-09T09:52:02.982Z,335
2018-10-09T09:53:02.617Z,335
2018-10-09T09:54:02.110Z,335
2018-10-09T09:55:02.093Z,335
2018-10-09T09:56:02.612Z,330
2018-10-09T09:57:02.098Z,330
2018-10-09T09:58:02.887Z,330
2018-10-09T09:59:04.139Z,330
2018-10-09T10:00:02.597Z,325
2018-10-09T10:01:02.340Z,325
2018-10-09T10:02:02.093Z,325
2018-10-09T10:03:02.086Z,325
2018-10-09T10:04:02.597Z,320
2018-10-09T10:05:02.594Z,320
2018-10-09T10:06:02.337Z,320
2018-10-09T10:07:02.601Z,320
2018-10-09T10:08:02.588Z,325
2018-10-09T10:09:02.583Z,325
2018-10-09T10:10:02.586Z,325
2018-10-09T10:11:02.073Z,330
2018-10-09T10:12:02.084Z,330
2018-10-09T10:13:02.328Z,330
2018-10-09T10:14:02.075Z,335
2018-10-09T10:15:02.324Z,335
2018-10-09T10:16:02.809Z,335
2018-10-09T10:17:02.578Z,340
2018-10-09T10:18:02.580Z,335
2018-10-09T10:19:02.570Z,335
2018-10-09T10:20:02.573Z,330
2018-10-09T10:21:02.563Z,325
2018-10-09T10:22:02.318Z,325
2018-10-09T10:23:02.321Z,320
2018-10-09T10:24:02.331Z,315
2018-10-09T10:25:02.569Z,315
2018-10-09T10:26:02.567Z,310
2018-10-09T10:27:02.312Z,310
2018-10-09T10:28:02.309Z,305
2018-10-09T10:29:02.431Z,300
2018-10-09T10:30:02.049Z,295
2018-10-09T10:31:02.570Z,285
2018-10-09T10:32:02.565Z,280
2018-10-09T10:33:02.570Z,275
2018-10-09T10:34:02.558Z,270
2018-10-09T10:35:02.054Z,270
2018-10-09T10:36:02.049Z,270
2018-10-09T10:37:02.312Z,260
2018-10-09T10:38:02.068Z,260
2018-10-09T10:39:02.553Z,255
2018-10-09T10:40:02.579Z,250
2018-10-09T10:41:02.578Z,245
2018-10-09T10:42:02.740Z,240
2018-10-09T10:43:02.562Z,235
2018-10-09T10:44:02.289Z,230
2018-10-09T10:45:02.345Z,230
2018-10-09T10:46:02.595Z,225
2018-10-09T10:47:02.544Z,225
2018-10-09T10:48:02.543Z,220
2018-10-09T10:49:02.956Z,215
2018-10-09T10:50:02.290Z,220
2018-10-09T10:51:02.290Z,215
2018-10-09T10:52:02.290Z,210
2018-10-09T10:53:02.545Z,205
2018-10-09T10:54:02.533Z,195
2018-10-09T10:55:02.897Z,190
2018-10-09T10:56:02.026Z,185
2018-10-09T10:57:02.539Z,175
2018-10-09T10:58:02.276Z,170
2018-10-09T10:59:02.533Z,160
2018-10-09T11:00:02.539Z,155
2018-10-09T11:01:02.275Z,150
2018-10-09T11:02:02.829Z,150
2018-10-09T11:03:02.524Z,150
2018-10-09T11:04:02.529Z,150
2018-10-09T11:05:02.018Z,150
2018-10-09T11:06:02.516Z,150
2018-10-09T11:07:02.264Z,150
2018-10-09T11:08:02.840Z,150
2018-10-09T11:09:02.522Z,150
2018-10-09T11:10:02.265Z,150
2018-10-09T11:11:02.518Z,150
2018-10-09T11:12:02.263Z,150
2018-10-09T11:13:02.517Z,155
2018-10-09T11:14:02.518Z,160
2018-10-09T11:15:02.511Z,155
2018-10-09T11:16:02.508Z,155
2018-10-09T11:17:02.244Z,155
2018-10-09T11:18:02.501Z,155
2018-10-09T11:19:02.505Z,155
2018-10-09T11:20:02.241Z,160
2018-10-09T11:21:02.065Z,160
2018-10-09T11:22:02.239Z,160
2018-10-09T11:23:02.502Z,155
2018-10-09T11:24:02.243Z,155
2018-10-09T11:25:02.502Z,155
2018-10-09T11:26:01.721Z,155
2018-10-09T11:27:02.579Z,155
2018-10-09T11:28:02.483Z,155
2018-10-09T11:29:01.970Z,155
2018-10-09T11:30:02.230Z,155
2018-10-09T11:31:02.225Z,155
2018-10-09T11:32:02.217Z,150
2018-10-09T11:33:02.218Z,150
2018-10-09T11:34:01.956Z,150
2018-10-09T11:35:02.486Z,145
2018-10-09T11:36:02.470Z,145
2018-10-09T11:37:02.207Z,145
2018-10-09T11:38:02.467Z,150
2018-10-09T11:39:02.455Z,155
2018-10-09T11:40:02.494Z,155
2018-10-09T11:41:02.465Z,160
2018-10-09T11:42:02.202Z,165
2018-10-09T11:43:02.134Z,165
2018-10-09T11:44:02.202Z,165
2018-10-09T11:45:01.941Z,170
2018-10-09T11:46:02.459Z,170
2018-10-09T11:47:02.192Z,175
2018-10-09T11:48:02.198Z,175
2018-10-09T11:49:02.443Z,180
2018-10-09T11:50:01.934Z,185
2018-10-09T11:51:01.675Z,185
2018-10-09T11:52:01.932Z,185
2018-10-09T11:53:02.439Z,190
2018-10-09T11:54:02.464Z,195
2018-10-09T11:55:02.458Z,195
2018-10-09T11:56:02.178Z,200
2018-10-09T11:57:02.168Z,195
2018-10-09T11:58:02.176Z,195
2018-10-09T11:59:02.584Z,190
2018-10-09T12:00:02.183Z,190
2018-10-09T12:01:02.438Z,185
2018-10-09T12:02:01.910Z,180
2018-10-09T12:03:02.848Z,175
2018-10-09T12:04:01.913Z,170
2018-10-09T12:05:02.160Z,165
2018-10-09T12:06:02.328Z,160
2018-10-09T12:07:02.160Z,155
2018-10-09T12:08:02.413Z,150
2018-10-09T12:09:02.158Z,145
2018-10-09T12:10:02.432Z,145
2018-10-09T12:11:02.416Z,140
2018-10-09T12:12:01.924Z,140
2018-10-09T12:13:02.151Z,135
2018-10-09T12:14:02.152Z,135
2018-10-09T12:15:02.154Z,140
2018-10-09T12:16:02.432Z,135
2018-10-09T12:17:02.405Z,135
2018-10-09T12:18:02.405Z,135
2018-10-09T12:19:01.632Z,135
2018-10-09T12:20:02.393Z,135
2018-10-09T12:21:01.889Z,135
2018-10-09T12:22:02.147Z,130
2018-10-09T12:23:02.388Z,130
2018-10-09T12:24:02.387Z,130
2018-10-09T12:25:02.387Z,130
2018-10-09T12:26:02.383Z,130
2018-10-09T12:27:02.348Z,130
2018-10-09T12:28:02.385Z,130
2018-10-09T12:29:02.379Z,130
2018-10-09T12:30:02.124Z,130
2018-10-09T12:31:02.381Z,130
2018-10-09T12:32:02.375Z,125
2018-10-09T12:33:02.527Z,125
2018-10-09T12:34:02.382Z,125
2018-10-09T12:35:02.114Z,125
2018-10-09T12:36:01.852Z,125
2018-10-09T12:37:02.359Z,120
2018-10-09T12:38:02.369Z,120
2018-10-09T12:39:02.357Z,120
2018-10-09T12:40:02.370Z,120
2018-10-09T12:41:02.096Z,120
2018-10-09T12:42:02.416Z,115
2018-10-09T12:43:02.104Z,115
2018-10-09T12:44:03.096Z,115
2018-10-09T12:45:02.353Z,115
2018-10-09T12:46:02.092Z,110
2018-10-09T12:47:02.343Z,110
2018-10-09T12:48:02.094Z,110
2018-10-09T12:49:01.828Z,110
2018-10-09T12:50:02.339Z,110
2018-10-09T12:51:02.082Z,110
2018-10-09T12:52:02.332Z,110
2018-10-09T12:53:02.815Z,105
2018-10-09T12:54:01.824Z,110
2018-10-09T12:55:01.821Z,105
2018-10-09T12:56:02.325Z,105
2018-10-09T12:57:01.969Z,110
2018-10-09T12:58:02.077Z,110
2018-10-09T12:59:02.734Z,110
2018-10-09T13:00:02.087Z,110
2018-10-09T13:01:02.062Z,110
2018-10-09T13:02:02.066Z,110
2018-10-09T13:03:02.197Z,110
2018-10-09T13:04:01.806Z,110
2018-10-09T13:05:02.063Z,110
2018-10-09T13:06:02.053Z,115
2018-10-09T13:07:02.313Z,115
2018-10-09T13:08:02.307Z,115
2018-10-09T13:09:02.302Z,115
2018-10-09T13:10:02.048Z,115
2018-10-09T13:11:02.057Z,115
2018-10-09T13:12:02.306Z,115
2018-10-09T13:13:02.043Z,115
2018-10-09T13:14:02.042Z,120
2018-10-09T13:15:02.042Z,120
2018-10-09T13:16:02.033Z,120
2018-10-09T13:17:02.077Z,120
2018-10-09T13:18:02.287Z,120
2018-10-09T13:19:02.036Z,120
2018-10-09T13:20:02.278Z,120
2018-10-09T13:21:03.135Z,120
2018-10-09T13:22:03.941Z,120
2018-10-09T13:23:02.420Z,120
2018-10-09T13:24:01.773Z,120
2018-10-09T13:25:02.022Z,120
2018-10-09T13:26:02.297Z,120
2018-10-09T13:27:02.054Z,120
2018-10-09T13:28:01.762Z,120
2018-10-09T13:29:02.020Z,120
2018-10-09T13:30:02.003Z,120
2018-10-09T13:31:02.345Z,120
2018-10-09T13:32:02.266Z,120
2018-10-09T13:33:02.004Z,120
2018-10-09T13:34:02.298Z,125
2018-10-09T13:35:01.757Z,125
2018-10-09T13:36:02.255Z,125
2018-10-09T13:37:01.995Z,125
2018-10-09T13:38:02.043Z,130
2018-10-09T13:39:02.246Z,130
2018-10-09T13:40:01.998Z,130
2018-10-09T13:41:02.489Z,130
2018-10-09T13:42:01.981Z,130
2018-10-09T13:43:01.991Z,130
2018-10-09T13:44:02.272Z,130
2018-10-09T13:45:01.977Z,130
2018-10-09T13:46:01.995Z,130
2018-10-09T13:47:01.981Z,130
2018-10-09T13:48:02.237Z,130
2018-10-09T13:49:02.226Z,130
2018-10-09T13:50:01.973Z,130
2018-10-09T13:51:02.538Z,130
2018-10-09T13:52:02.227Z,130
2018-10-09T13:53:02.235Z,130
2018-10-09T13:54:02.220Z,125
2018-10-09T13:55:01.734Z,125
2018-10-09T13:56:02.222Z,130
2018-10-09T13:57:02.255Z,130
2018-10-09T13:58:01.956Z,130
2018-10-09T13:59:02.217Z,130
2018-10-09T14:00:01.699Z,130
2018-10-09T14:01:01.699Z,130
2018-10-09T14:02:01.955Z,125
2018-10-09T14:03:02.232Z,125
2018-10-09T14:04:01.958Z,125
2018-10-09T14:05:02.198Z,125
2018-10-09T14:06:02.380Z,120
2018-10-09T14:07:02.195Z,120
2018-10-09T14:08:01.687Z,120
2018-10-09T14:09:01.947Z,120
2018-10-09T14:10:02.400Z,120
2018-10-09T14:11:01.936Z,120